Time;durP1;ratioP1;P1;durP2;ratioP2;P2;SDS_P1;SDS_P2;PMS_P1;PMS_P2;Temp;Humidity;BMP_temperature;BMP_pressure;BME280_temperature;BME280_humidity;BME280_pressure;Samples;Min_cycle;Max_cycle;Signal;HPM_P1;HPM_P2
2021/08/19 00:01:45;;;;;;;4.03;2.03;;;;;;;19.82;40.37;101249.66;5053202;28;20265;-60
2021/08/19 00:04:10;;;;;;;4.90;2.60;;;;;;;19.80;40.75;101242.94;5053549;28;20184;-60
2021/08/19 00:06:36;;;;;;;5.10;2.30;;;;;;;19.78;40.90;101237.78;5053644;28;20176;-60
2021/08/19 00:09:01;;;;;;;3.97;1.90;;;;;;;19.88;41.89;101244.91;5052971;28;20614;-60
2021/08/19 00:11:28;;;;;;;8.00;2.47;;;;;;;19.89;42.25;101240.03;5052998;28;20185;-60
2021/08/19 00:13:54;;;;;;;2.93;2.03;;;;;;;19.91;41.51;101235.47;5053305;28;20187;-60
2021/08/19 00:16:19;;;;;;;4.27;2.33;;;;;;;19.92;41.64;101247.53;5053427;28;20180;-60
2021/08/19 00:18:45;;;;;;;5.43;2.17;;;;;;;19.91;41.90;101241.09;5053176;28;20176;-60
2021/08/19 00:21:10;;;;;;;4.77;2.10;;;;;;;19.59;42.13;101193.44;5053037;28;20703;-60
2021/08/19 00:23:36;;;;;;;4.17;2.20;;;;;;;19.88;41.90;101250.53;5053197;28;20676;-60
2021/08/19 00:26:05;;;;;;;4.80;2.40;;;;;;;19.87;41.17;101246.16;5053562;28;20205;-60
2021/08/19 00:28:31;;;;;;;3.30;2.23;;;;;;;19.86;41.26;101247.41;5052735;28;20213;-60
2021/08/19 00:30:56;;;;;;;4.63;2.40;;;;;;;19.85;41.03;101254.28;5052647;28;20183;-60
2021/08/19 00:33:23;;;;;;;4.23;2.10;;;;;;;19.57;41.33;101210.00;5052926;28;20190;-60
2021/08/19 00:35:49;;;;;;;4.83;2.37;;;;;;;19.87;41.18;101257.41;5052367;28;20186;-60
2021/08/19 00:38:15;;;;;;;3.03;1.87;;;;;;;19.80;40.90;101237.31;5052199;28;20579;-60
2021/08/19 00:40:40;;;;;;;5.43;2.17;;;;;;;19.76;41.20;101247.97;5052612;28;20199;-60
2021/08/19 00:43:06;;;;;;;4.70;2.13;;;;;;;19.75;41.36;101249.22;5052674;28;20274;-60
2021/08/19 00:45:34;;;;;;;3.47;2.30;;;;;;;19.59;41.50;101244.03;5034761;28;20177;-60
2021/08/19 00:47:59;;;;;;;3.97;2.17;;;;;;;19.66;41.98;101252.88;5052426;28;20196;-60
2021/08/19 00:50:25;;;;;;;8.63;2.30;;;;;;;19.56;42.20;101257.03;5052555;28;20186;-60
2021/08/19 00:52:51;;;;;;;4.73;2.37;;;;;;;19.13;42.20;101212.59;5052399;28;20197;-60
2021/08/19 00:55:17;;;;;;;5.00;2.43;;;;;;;19.30;42.53;101239.06;5052528;28;20570;-60
2021/08/19 00:57:46;;;;;;;4.43;2.27;;;;;;;19.41;42.51;101256.19;5052074;28;20178;-60
2021/08/19 01:00:13;;;;;;;5.57;2.20;;;;;;;19.47;42.41;101256.28;5052361;28;20254;-60
2021/08/19 01:02:42;;;;;;;4.20;2.20;;;;;;;19.50;42.88;101258.16;5052414;28;20189;-60
2021/08/19 01:05:09;;;;;;;7.43;2.33;;;;;;;19.52;43.12;101253.59;5052219;28;20197;-60
2021/08/19 01:07:35;;;;;;;4.80;2.63;;;;;;;19.12;42.91;101196.19;5052093;28;20176;-60
2021/08/19 01:10:01;;;;;;;3.20;1.90;;;;;;;19.10;43.33;101224.78;5052023;28;20661;-60
2021/08/19 01:12:26;;;;;;;4.93;2.17;;;;;;;19.37;42.77;101257.59;5052383;28;20183;-60
2021/08/19 01:14:52;;;;;;;4.67;2.60;;;;;;;19.39;43.00;101255.88;5052166;28;20266;-60
2021/08/19 01:17:18;;;;;;;4.60;2.23;;;;;;;19.35;42.98;101257.31;5051925;28;20191;-60
2021/08/19 01:19:49;;;;;;;4.57;2.30;;;;;;;19.22;43.16;101253.94;5051892;28;20187;-60
2021/08/19 01:22:16;;;;;;;6.57;2.30;;;;;;;19.18;43.24;101258.94;5034161;28;20218;-60
2021/08/19 01:24:42;;;;;;;4.43;2.40;;;;;;;19.23;43.29;101263.91;5052101;28;20251;-60
2021/08/19 01:27:14;;;;;;;5.13;2.40;;;;;;;18.84;43.37;101206.03;5051662;28;20290;-60
2021/08/19 01:29:42;;;;;;;4.77;2.20;;;;;;;19.26;43.32;101266.56;5051639;28;20204;-60
2021/08/19 01:32:09;;;;;;;5.30;2.13;;;;;;;18.71;43.52;101206.25;5051576;28;20687;-60
2021/08/19 01:34:34;;;;;;;4.20;2.20;;;;;;;18.93;43.70;101246.09;5051813;28;20204;-60
2021/08/19 01:37:00;;;;;;;5.00;2.47;;;;;;;19.07;43.79;101265.06;5051665;28;20201;-60
2021/08/19 01:39:26;;;;;;;4.67;2.20;;;;;;;18.96;43.72;101247.94;5051547;28;20184;-60
2021/08/19 01:41:51;;;;;;;5.37;2.43;;;;;;;19.12;43.97;101255.19;5051514;28;20169;-60
2021/08/19 01:44:18;;;;;;;4.07;2.10;;;;;;;19.02;44.59;101240.44;5051498;28;20232;-60
2021/08/19 01:46:43;;;;;;;6.70;2.63;;;;;;;19.21;43.64;101258.75;5051510;28;20187;-60
2021/08/19 01:49:09;;;;;;;4.33;2.60;;;;;;;19.04;43.87;101235.09;5051086;28;20200;-60
2021/08/19 01:51:35;;;;;;;8.63;2.33;;;;;;;19.16;44.55;101247.38;5051077;28;20191;-60
2021/08/19 01:54:01;;;;;;;5.53;2.60;;;;;;;19.22;44.17;101257.53;5051346;28;20580;-60
2021/08/19 01:56:27;;;;;;;6.70;2.40;;;;;;;18.68;44.17;101189.56;5051396;28;20712;-60
2021/08/19 01:58:55;;;;;;;4.87;2.63;;;;;;;18.70;44.09;101198.28;5051057;28;20259;-60
2021/08/19 02:01:22;;;;;;;3.60;2.30;;;;;;;19.14;43.94;101264.72;5051126;28;20603;-60
2021/08/19 02:03:49;;;;;;;3.87;2.40;;;;;;;19.18;44.60;101259.69;5051327;28;20195;-60
2021/08/19 02:06:14;;;;;;;3.47;2.20;;;;;;;18.81;44.06;101213.38;5051272;28;20671;-60
2021/08/19 02:08:40;;;;;;;4.77;2.20;;;;;;;19.15;44.09;101257.06;5050916;28;20278;-60
2021/08/19 02:11:06;;;;;;;4.33;2.60;;;;;;;18.95;44.59;101248.41;5050804;28;20650;-60
2021/08/19 02:13:31;;;;;;;3.57;2.37;;;;;;;18.97;44.60;101243.09;5051212;28;20176;-60
2021/08/19 02:15:58;;;;;;;5.20;2.67;;;;;;;18.94;44.75;101249.69;5051025;28;20729;-60
2021/08/19 02:18:24;;;;;;;8.27;2.57;;;;;;;18.90;45.02;101260.31;5050981;28;20603;-60
2021/08/19 02:20:49;;;;;;;4.30;2.20;;;;;;;18.87;44.96;101255.63;5050625;28;20186;-60
2021/08/19 02:23:15;;;;;;;6.50;2.50;;;;;;;18.96;45.13;101264.00;5050822;28;20183;-60
2021/08/19 02:25:40;;;;;;;4.40;2.50;;;;;;;18.93;45.89;101260.13;5051111;28;20184;-60
2021/08/19 02:28:06;;;;;;;4.40;2.47;;;;;;;18.95;45.23;101266.06;5050591;28;20203;-60
2021/08/19 02:30:31;;;;;;;7.73;2.37;;;;;;;18.94;45.58;101263.72;5050800;28;20180;-60
2021/08/19 02:32:57;;;;;;;4.33;2.17;;;;;;;18.89;46.21;101256.69;5050646;28;20222;-60
2021/08/19 02:35:24;;;;;;;6.17;2.67;;;;;;;18.86;45.47;101259.69;5050905;28;20179;-60
2021/08/19 02:37:49;;;;;;;6.03;2.47;;;;;;;18.82;45.36;101267.50;5032896;28;20189;-60
2021/08/19 02:40:15;;;;;;;5.50;2.27;;;;;;;18.63;46.76;101255.56;5050566;28;20267;-60
2021/08/19 02:42:41;;;;;;;6.50;2.60;;;;;;;18.77;46.56;101265.34;5050586;28;20639;-60
2021/08/19 02:45:07;;;;;;;5.53;2.30;;;;;;;18.76;45.80;101264.56;5050739;28;20597;-60
2021/08/19 02:47:32;;;;;;;6.50;2.33;;;;;;;18.71;45.55;101268.00;5050745;28;20214;-60
2021/08/19 02:49:58;;;;;;;4.77;2.40;;;;;;;18.74;46.23;101271.91;5051047;28;20642;-60
2021/08/19 02:52:24;;;;;;;3.40;2.37;;;;;;;18.72;46.28;101274.41;5032631;28;20223;-60
2021/08/19 02:54:50;;;;;;;6.37;2.57;;;;;;;18.48;45.84;101239.84;5051029;28;20184;-60
2021/08/19 02:57:16;;;;;;;4.77;2.30;;;;;;;18.47;45.65;101263.56;5050380;28;20565;-60
2021/08/19 02:59:41;;;;;;;6.40;2.57;;;;;;;18.63;46.38;101280.06;5051134;28;20181;-60
2021/08/19 03:02:07;;;;;;;4.17;2.33;;;;;;;18.66;45.94;101296.72;5036770;28;20714;-60
2021/08/19 03:04:32;;;;;;;6.20;2.77;;;;;;;18.66;46.25;101281.91;5054769;28;20181;-60
2021/08/19 03:06:58;;;;;;;5.77;2.60;;;;;;;18.47;46.72;101246.72;5054251;28;20185;-60
2021/08/19 03:09:24;;;;;;;4.83;2.50;;;;;;;18.68;46.10;101282.22;5054534;28;20211;-60
2021/08/19 03:11:49;;;;;;;6.30;2.70;;;;;;;18.61;45.80;101283.31;5036591;28;20187;-60
2021/08/19 03:14:15;;;;;;;6.00;2.20;;;;;;;18.46;46.36;101276.00;5054511;28;20207;-60
2021/08/19 03:16:42;;;;;;;5.53;2.30;;;;;;;18.52;46.21;101291.00;5054399;28;20218;-60
2021/08/19 03:19:08;;;;;;;7.83;2.37;;;;;;;18.57;46.28;101290.38;5054178;28;20173;-60
2021/08/19 03:21:33;;;;;;;5.07;2.47;;;;;;;18.51;46.47;101293.00;5053973;28;20234;-60
2021/08/19 03:24:00;;;;;;;6.00;2.60;;;;;;;18.45;46.63;101294.91;5054368;28;20604;-60
2021/08/19 03:26:26;;;;;;;6.13;2.40;;;;;;;18.48;46.66;101296.00;5054527;28;20175;-60
2021/08/19 03:28:51;;;;;;;4.27;2.73;;;;;;;18.34;46.66;101294.59;5036069;28;20239;-60
2021/08/19 03:31:17;;;;;;;5.33;2.37;;;;;;;18.44;46.60;101295.38;5053787;28;20186;-60
2021/08/19 03:33:43;;;;;;;4.60;2.37;;;;;;;18.44;46.71;101286.94;5054041;28;20184;-60
2021/08/19 03:36:11;;;;;;;5.80;2.43;;;;;;;18.49;46.67;101300.34;5054058;28;20654;-60
2021/08/19 03:38:36;;;;;;;7.00;2.70;;;;;;;18.21;47.00;101276.34;5036095;28;20180;-60
2021/08/19 03:41:01;;;;;;;5.23;2.83;;;;;;;17.75;47.53;101224.34;5053804;28;20192;-60
2021/08/19 03:43:27;;;;;;;3.67;2.33;;;;;;;18.23;47.50;101299.88;5054035;28;20232;-60
2021/08/19 03:45:52;;;;;;;3.83;2.40;;;;;;;18.18;47.55;101295.66;5053995;28;20191;-60
2021/08/19 03:48:18;;;;;;;4.37;2.50;;;;;;;18.24;47.97;101313.44;5053646;28;20204;-60
2021/08/19 03:50:44;;;;;;;6.53;2.40;;;;;;;17.76;47.39;101235.06;5053566;28;20184;-60
2021/08/19 03:53:10;;;;;;;6.93;2.80;;;;;;;18.28;48.38;101310.50;5053513;28;20719;-60
2021/08/19 03:55:35;;;;;;;6.97;2.70;;;;;;;18.34;48.23;101308.63;5036013;28;20187;-60
2021/08/19 03:58:01;;;;;;;6.00;2.27;;;;;;;18.24;48.59;101287.41;5053565;28;20229;-60
2021/08/19 04:00:26;;;;;;;4.27;2.37;;;;;;;18.32;48.27;101299.09;5053568;28;20188;-60
2021/08/19 04:02:52;;;;;;;5.17;2.40;;;;;;;18.36;48.13;101311.75;5053521;28;20186;-60
2021/08/19 04:05:17;;;;;;;6.47;2.63;;;;;;;18.40;48.54;101306.75;5053364;28;20181;-60
2021/08/19 04:07:43;;;;;;;4.97;2.47;;;;;;;18.26;48.65;101279.31;5053233;28;20179;-60
2021/08/19 04:10:09;;;;;;;9.33;3.13;;;;;;;18.01;48.27;101236.78;5053222;28;20655;-60
2021/08/19 04:12:35;;;;;;;7.67;2.97;;;;;;;18.61;47.86;101314.22;5053078;28;20184;-60
2021/08/19 04:15:03;;;;;;;8.17;2.57;;;;;;;18.57;48.26;101307.22;5053361;28;20183;-60
2021/08/19 04:17:28;;;;;;;8.40;2.90;;;;;;;18.55;48.44;101324.50;5033208;28;20207;-60
2021/08/19 04:19:54;;;;;;;7.20;2.90;;;;;;;18.60;48.42;101323.88;5033026;28;20207;-60
2021/08/19 04:22:19;;;;;;;10.77;3.23;;;;;;;18.58;47.70;101329.16;5033195;28;20767;-60
2021/08/19 04:24:45;;;;;;;4.53;2.40;;;;;;;18.62;47.27;101332.59;5033353;28;20541;-60
2021/08/19 04:27:10;;;;;;;9.57;2.87;;;;;;;18.22;47.55;101261.84;5032773;28;20187;-60
2021/08/19 04:29:36;;;;;;;6.03;2.50;;;;;;;18.64;47.52;101334.94;5050760;28;20586;-60
2021/08/19 04:32:02;;;;;;;6.03;2.43;;;;;;;18.35;47.64;101286.94;5051900;28;20238;-60
2021/08/19 04:34:28;;;;;;;9.33;2.83;;;;;;;18.74;47.72;101326.03;5050057;28;20555;-60
2021/08/19 04:36:53;;;;;;;10.33;2.67;;;;;;;18.64;47.78;101327.31;5047771;28;20201;-60
2021/08/19 04:39:19;;;;;;;5.17;2.20;;;;;;;18.70;47.65;101328.22;5034239;28;20189;-60
2021/08/19 04:41:45;;;;;;;10.03;2.60;;;;;;;18.76;47.72;101328.34;5052034;28;20185;-60
2021/08/19 04:44:10;;;;;;;8.57;2.40;;;;;;;18.74;47.92;101323.25;5052277;28;20232;-60
2021/08/19 04:46:36;;;;;;;11.57;2.60;;;;;;;18.91;47.37;101337.69;5051945;28;20215;-60
2021/08/19 04:49:05;;;;;;;9.93;3.10;;;;;;;18.96;47.44;101340.66;5051459;28;20243;-60
2021/08/19 04:51:35;;;;;;;12.07;3.00;;;;;;;19.04;47.42;101341.84;5051740;28;20181;-60
2021/08/19 04:54:04;;;;;;;9.60;2.50;;;;;;;18.84;47.43;101295.91;5052180;28;20250;-60
2021/08/19 04:56:36;;;;;;;10.80;2.30;;;;;;;19.19;47.33;101336.34;5052010;28;20722;-60
2021/08/19 04:59:06;;;;;;;7.93;2.60;;;;;;;19.29;46.98;101335.84;5051497;28;20164;-60
2021/08/19 05:01:32;;;;;;;9.47;2.80;;;;;;;19.39;46.84;101347.84;5051559;28;20218;-60
2021/08/19 05:04:00;;;;;;;10.40;2.57;;;;;;;19.46;46.46;101353.13;5052106;28;20546;-60
2021/08/19 05:06:27;;;;;;;6.93;2.40;;;;;;;19.41;46.21;101329.25;5051735;28;20188;-60
2021/08/19 05:08:53;;;;;;;5.93;2.60;;;;;;;19.54;45.76;101341.03;5031327;28;20205;-60
2021/08/19 05:11:19;;;;;;;6.43;2.53;;;;;;;19.58;45.84;101338.84;5031614;28;20606;-60
2021/08/19 05:13:44;;;;;;;9.20;2.23;;;;;;;19.68;45.82;101337.53;5031882;28;20173;-60
2021/08/19 05:16:10;;;;;;;7.97;2.23;;;;;;;19.47;45.38;101298.44;5041415;28;20215;-60
2021/08/19 05:18:35;;;;;;;4.77;2.40;;;;;;;19.73;44.99;101344.53;5051033;28;20220;-60
2021/08/19 05:21:01;;;;;;;11.37;2.40;;;;;;;19.87;44.78;101349.44;5050814;28;20363;-60
2021/08/19 05:23:27;;;;;;;12.87;2.57;;;;;;;19.97;44.95;101340.47;5051170;28;20215;-60
2021/08/19 05:25:52;;;;;;;4.83;2.23;;;;;;;20.04;45.21;101339.31;5051645;28;20183;-60
2021/08/19 05:28:18;;;;;;;7.00;2.30;;;;;;;19.79;44.42;101295.59;5050612;28;20212;-60
2021/08/19 05:30:43;;;;;;;6.67;2.00;;;;;;;19.82;44.15;101276.97;5051103;28;20602;-60
2021/08/19 05:33:09;;;;;;;7.53;2.57;;;;;;;20.26;43.27;101337.75;5051204;28;20188;-60
2021/08/19 05:35:34;;;;;;;3.80;2.40;;;;;;;20.36;42.77;101342.06;5051286;28;20321;-60
2021/08/19 05:38:00;;;;;;;5.37;1.90;;;;;;;20.32;42.93;101304.13;5050539;28;20172;-60
2021/08/19 05:40:25;;;;;;;7.13;2.13;;;;;;;20.68;42.62;101335.50;5050862;28;20563;-60
2021/08/19 05:42:51;;;;;;;4.87;2.03;;;;;;;20.73;42.06;101334.06;5050534;28;20506;-60
2021/08/19 05:45:16;;;;;;;4.30;2.00;;;;;;;20.84;42.56;101335.03;5050867;28;20164;-60
2021/08/19 05:47:42;;;;;;;5.43;2.10;;;;;;;20.97;40.89;101334.75;5050473;28;20184;-60
2021/08/19 05:50:10;;;;;;;6.67;2.20;;;;;;;21.09;40.66;101336.50;5050727;28;20569;-60
2021/08/19 05:52:38;;;;;;;3.10;2.07;;;;;;;21.01;39.82;101316.38;5050667;28;20617;-60
2021/08/19 05:55:04;;;;;;;7.33;2.10;;;;;;;21.07;39.88;101319.28;5051140;28;20639;-60
2021/08/19 05:57:29;;;;;;;5.60;1.87;;;;;;;21.31;40.27;101343.28;5050267;28;20250;-60
2021/08/19 05:59:55;;;;;;;4.07;2.17;;;;;;;21.40;39.48;101331.84;5050717;28;20184;-60
2021/08/19 06:02:20;;;;;;;5.57;2.00;;;;;;;21.47;39.35;101337.09;5050363;28;20180;-60
2021/08/19 06:04:46;;;;;;;3.23;1.90;;;;;;;21.57;38.95;101341.34;5050370;28;20233;-60
2021/08/19 06:07:11;;;;;;;3.43;1.90;;;;;;;21.51;38.17;101351.00;5050389;28;20191;-60
2021/08/19 06:09:37;;;;;;;4.27;2.10;;;;;;;21.55;38.12;101341.06;5032456;28;20235;-60
2021/08/19 06:12:03;;;;;;;4.90;2.20;;;;;;;21.68;38.48;101341.53;5050517;28;20186;-60
2021/08/19 06:14:28;;;;;;;3.83;1.87;;;;;;;21.74;38.67;101345.22;5050364;28;20191;-60
2021/08/19 06:16:54;;;;;;;4.47;1.80;;;;;;;22.03;42.61;101358.41;5049537;28;20246;-66
2021/08/19 06:19:20;;;;;;;3.07;1.97;;;;;;;22.82;43.71;101356.81;5049060;28;20176;-66
2021/08/19 06:21:46;;;;;;;6.87;2.37;;;;;;;23.70;43.05;101349.03;5031651;28;20716;-66
2021/08/19 06:24:12;;;;;;;4.77;2.13;;;;;;;24.06;37.42;101312.16;5049173;28;20716;-68
2021/08/19 06:26:37;;;;;;;5.07;2.00;;;;;;;24.12;36.62;101344.13;5049699;28;20509;-66
2021/08/19 06:29:03;;;;;;;4.43;2.07;;;;;;;24.46;34.02;101362.78;5048428;28;20208;-66
2021/08/19 06:31:28;;;;;;;3.93;2.10;;;;;;;24.48;33.80;101337.56;5049180;28;20650;-66
2021/08/19 06:33:54;;;;;;;6.23;2.20;;;;;;;24.63;33.79;101355.13;5048699;28;20264;-67
2021/08/19 06:36:19;;;;;;;3.43;2.10;;;;;;;24.11;34.72;101356.72;5049924;28;20642;-69
2021/08/19 06:38:45;;;;;;;3.20;1.97;;;;;;;23.27;35.49;101330.47;5038447;28;20180;-67
2021/08/19 06:41:10;;;;;;;2.83;1.90;;;;;;;23.76;35.63;101299.69;5048199;28;20263;-69
2021/08/19 06:43:36;;;;;;;3.50;2.10;;;;;;;24.05;34.15;101341.00;5030654;28;20228;-68
2021/08/19 06:46:01;;;;;;;5.07;2.20;;;;;;;24.47;34.19;101357.91;5028501;28;20212;-70
2021/08/19 06:48:27;;;;;;;4.30;1.93;;;;;;;23.60;34.91;101322.22;5042520;28;20646;-71
2021/08/19 06:50:52;;;;;;;4.10;2.10;;;;;;;23.56;35.07;101344.31;5030889;28;20184;-69
2021/08/19 06:53:18;;;;;;;5.23;2.63;;;;;;;23.38;36.78;101350.38;5048980;28;20188;-69
2021/08/19 06:55:43;;;;;;;4.20;2.20;;;;;;;23.30;36.07;101335.13;5049637;28;20675;-68
2021/08/19 06:58:09;;;;;;;4.03;1.90;;;;;;;23.67;34.71;101344.38;5049076;28;20571;-64
2021/08/19 07:00:35;;;;;;;3.93;2.10;;;;;;;23.86;34.65;101340.63;5030434;28;20241;-73
2021/08/19 07:03:00;;;;;;;4.63;2.00;;;;;;;24.37;33.69;101339.56;5048989;28;20184;-68
2021/08/19 07:05:26;;;;;;;4.50;2.33;;;;;;;23.89;34.86;101348.13;5048863;28;20184;-68
2021/08/19 07:07:57;;;;;;;6.07;2.07;;;;;;;23.80;35.39;101341.88;5047731;28;20187;-68
2021/08/19 07:10:23;;;;;;;8.00;2.30;;;;;;;23.69;34.95;101299.38;5029823;28;20454;-67
2021/08/19 07:12:48;;;;;;;5.43;2.23;;;;;;;24.39;34.50;101348.31;5049221;28;20470;-71
2021/08/19 07:15:14;;;;;;;4.07;2.30;;;;;;;24.53;32.29;101336.00;5048838;28;20626;-70
2021/08/19 07:17:39;;;;;;;7.33;2.10;;;;;;;24.48;33.67;101297.88;5047516;28;20187;-70
2021/08/19 07:20:05;;;;;;;3.63;2.10;;;;;;;24.99;33.22;101347.69;5047739;28;20238;-70
2021/08/19 07:22:31;;;;;;;4.50;1.90;;;;;;;25.07;32.60;101348.75;5048825;28;20187;-73
2021/08/19 07:24:56;;;;;;;5.50;2.43;;;;;;;24.32;34.82;101335.44;5049176;28;20177;-70
2021/08/19 07:27:22;;;;;;;3.90;2.30;;;;;;;24.25;33.69;101330.25;5047619;28;20640;-68
2021/08/19 07:29:47;;;;;;;4.07;2.10;;;;;;;24.02;34.23;101320.16;5048223;28;20196;-71
2021/08/19 07:32:15;;;;;;;3.63;2.13;;;;;;;23.63;35.24;101275.91;5047828;28;20227;-70
2021/08/19 07:34:40;;;;;;;4.97;2.17;;;;;;;23.77;35.26;101291.94;5049005;28;20176;-70
2021/08/19 07:37:06;;;;;;;3.80;2.23;;;;;;;24.14;33.74;101284.91;5029737;28;20735;-70
2021/08/19 07:39:31;;;;;;;3.17;2.40;;;;;;;24.37;34.37;101336.75;5047623;28;20242;-70
2021/08/19 07:41:56;;;;;;;4.20;2.20;;;;;;;24.26;34.36;101350.88;5048326;28;20654;-70
2021/08/19 07:44:22;;;;;;;3.90;2.40;;;;;;;24.56;33.62;101352.75;5047998;28;20260;-70
2021/08/19 07:46:48;;;;;;;3.33;1.83;;;;;;;23.71;33.73;101248.69;5069482;28;20182;-70
2021/08/19 07:49:15;;;;;;;3.60;2.23;;;;;;;24.11;33.09;101344.63;5070438;28;20204;-70
2021/08/19 07:51:41;;;;;;;3.30;2.07;;;;;;;24.21;32.92;101340.28;5060468;28;20189;-70
2021/08/19 07:54:06;;;;;;;5.13;2.20;;;;;;;24.27;33.57;101346.75;5072422;28;20176;-70
2021/08/19 07:56:32;;;;;;;3.80;2.13;;;;;;;24.44;34.19;101348.34;5072372;28;20187;-70
2021/08/19 07:58:58;;;;;;;5.03;2.37;;;;;;;24.38;33.21;101352.44;5050735;28;20267;-70
2021/08/19 08:01:24;;;;;;;4.17;2.37;;;;;;;24.41;33.46;101349.38;5033711;28;20654;-70
2021/08/19 08:03:49;;;;;;;15.10;3.57;;;;;;;24.31;33.68;101333.88;5051569;28;20194;-70
2021/08/19 08:06:15;;;;;;;5.03;2.07;;;;;;;24.05;33.28;101287.97;5052115;28;20237;-70
2021/08/19 08:08:40;;;;;;;4.30;2.10;;;;;;;24.94;32.96;101354.13;5046902;28;20259;-70
2021/08/19 08:11:06;;;;;;;3.17;2.00;;;;;;;24.98;33.04;101349.00;5071602;28;20172;-70
2021/08/19 08:13:32;;;;;;;3.70;2.00;;;;;;;25.02;32.82;101349.53;5071386;28;20184;-71
2021/08/19 08:15:57;;;;;;;3.33;1.73;;;;;;;25.21;32.07;101357.00;5064381;28;20188;-70
2021/08/19 08:18:23;;;;;;;4.93;2.20;;;;;;;24.54;31.56;101289.38;5063507;28;20198;-70
2021/08/19 08:20:49;;;;;;;4.30;2.17;;;;;;;25.02;32.10;101364.44;5070886;28;20207;-70
2021/08/19 08:23:18;;;;;;;2.90;1.90;;;;;;;24.65;32.24;101303.59;5071297;28;20207;-70
2021/08/19 08:25:45;;;;;;;4.27;2.07;;;;;;;25.22;31.66;101346.41;5071799;28;20838;-70
2021/08/19 08:28:12;;;;;;;3.40;1.70;;;;;;;25.22;30.93;101335.06;5058208;28;20209;-70
2021/08/19 08:30:40;;;;;;;3.70;2.20;;;;;;;25.51;31.33;101338.16;5032668;28;20180;-71
2021/08/19 08:33:07;;;;;;;2.93;1.90;;;;;;;25.27;29.79;101342.81;5050929;28;20658;-69
2021/08/19 08:35:37;;;;;;;5.63;1.90;;;;;;;25.14;31.68;101295.13;5051238;28;20181;-72
2021/08/19 08:38:06;;;;;;;3.00;1.90;;;;;;;25.06;31.14;101294.06;5060269;28;20205;-71
2021/08/19 08:40:37;;;;;;;5.60;2.47;;;;;;;25.11;30.76;101286.84;5070641;28;20179;-72
2021/08/19 08:43:06;;;;;;;3.03;2.10;;;;;;;25.04;31.53;101276.03;5070648;28;20724;-71
2021/08/19 08:45:36;;;;;;;3.00;2.00;;;;;;;25.39;30.02;101327.34;5048858;28;20603;-71
2021/08/19 08:48:09;;;;;;;3.23;2.13;;;;;;;25.27;31.36;101286.88;5067240;28;20720;-71
2021/08/19 08:50:35;;;;;;;2.63;1.80;;;;;;;26.05;30.70;101332.88;5050475;28;20173;-71
2021/08/19 08:53:01;;;;;;;4.20;1.90;;;;;;;26.19;30.39;101331.75;5051454;28;20597;-71
2021/08/19 08:55:27;;;;;;;4.03;1.90;;;;;;;26.14;30.37;101321.97;5050109;28;20180;-69
2021/08/19 08:57:59;;;;;;;3.40;1.70;;;;;;;26.18;30.62;101302.59;5047029;28;20646;-66
2021/08/19 09:00:24;;;;;;;4.20;1.70;;;;;;;26.52;29.32;101317.38;5050653;28;20191;-66
2021/08/19 09:02:50;;;;;;;3.20;1.90;;;;;;;26.60;29.44;101322.00;5050470;28;20184;-66
2021/08/19 09:05:27;;;;;;;3.20;2.00;;;;;;;26.15;28.36;101315.00;5051017;28;20263;-65
2021/08/19 09:07:58;;;;;;;3.00;1.80;;;;;;;26.07;29.21;101310.38;5055576;28;20179;-66
2021/08/19 09:10:32;;;;;;;4.27;1.93;;;;;;;26.32;29.12;101321.38;5050649;28;20286;-66
2021/08/19 09:13:09;;;;;;;3.33;2.17;;;;;;;26.36;29.44;101307.63;5049978;28;20179;-66
2021/08/19 09:15:35;;;;;;;3.43;2.03;;;;;;;26.25;29.04;101267.94;5037151;28;20260;-65
2021/08/19 09:18:03;;;;;;;3.23;2.10;;;;;;;26.57;29.42;101305.97;5060297;28;20204;-66
2021/08/19 09:20:35;;;;;;;3.53;1.80;;;;;;;26.74;28.36;101303.03;5057717;28;20275;-61
2021/08/19 09:23:02;;;;;;;3.20;1.93;;;;;;;26.51;27.91;101308.06;5071887;28;20281;-60
2021/08/19 09:25:47;;;;;;;4.30;2.00;;;;;;;26.03;27.62;101247.41;5071512;28;20206;-60
2021/08/19 09:28:27;;;;;;;2.70;1.73;;;;;;;26.54;28.09;101294.88;5070868;28;20201;-60
2021/08/19 09:31:18;;;;;;;7.23;2.20;;;;;;;26.59;28.42;101296.94;5071689;28;20172;-61
2021/08/19 09:33:46;;;;;;;3.87;1.80;;;;;;;26.74;27.96;101292.44;5068450;28;20188;-60
2021/08/19 09:36:12;;;;;;;3.23;1.70;;;;;;;26.64;27.63;101247.78;5054167;28;20196;-60
2021/08/19 09:38:43;;;;;;;4.10;2.03;;;;;;;27.10;28.02;101293.94;5071472;28;20641;-60
2021/08/19 09:41:14;;;;;;;3.20;2.00;;;;;;;27.22;27.72;101294.66;5070366;28;20199;-60
2021/08/19 09:43:45;;;;;;;4.50;2.10;;;;;;;26.87;26.37;101286.88;5051469;28;20247;-60
2021/08/19 09:46:16;;;;;;;3.10;2.03;;;;;;;26.67;27.11;101278.78;5050762;28;20280;-60
2021/08/19 09:48:43;;;;;;;3.67;2.27;;;;;;;26.68;27.82;101277.50;5065691;28;20571;-60
2021/08/19 09:51:17;;;;;;;3.30;2.07;;;;;;;26.79;26.66;101277.41;5071350;28;20184;-60
2021/08/19 09:53:46;;;;;;;3.40;2.07;;;;;;;27.06;27.34;101272.75;5071426;28;20596;-60
2021/08/19 09:56:13;;;;;;;3.57;2.17;;;;;;;26.85;26.50;101226.16;5071351;28;20179;-61
2021/08/19 09:58:39;;;;;;;4.50;2.30;;;;;;;27.30;27.17;101270.75;5070977;28;20318;-60
2021/08/19 10:01:05;;;;;;;3.27;2.20;;;;;;;27.49;26.12;101267.97;5071592;28;20676;-60
2021/08/19 10:03:30;;;;;;;3.33;2.23;;;;;;;27.54;25.60;101267.13;5067245;28;20263;-60
2021/08/19 10:05:56;;;;;;;3.87;2.23;;;;;;;27.43;25.25;101265.16;5051238;28;20172;-60
2021/08/19 10:08:23;;;;;;;5.50;2.40;;;;;;;27.61;26.89;101260.84;5061791;28;20203;-60
2021/08/19 10:10:52;;;;;;;3.70;2.20;;;;;;;27.63;25.51;101263.94;5071171;28;20649;-60
2021/08/19 10:13:19;;;;;;;3.87;2.47;;;;;;;27.50;26.42;101244.66;5071412;28;20186;-60
2021/08/19 10:15:47;;;;;;;5.63;2.50;;;;;;;27.60;25.64;101248.69;5065220;28;20202;-60
2021/08/19 10:18:16;;;;;;;3.50;1.87;;;;;;;27.88;24.81;101260.53;5050776;28;20255;-60
2021/08/19 10:20:43;;;;;;;2.60;1.80;;;;;;;27.96;24.73;101266.38;5059849;28;20183;-60
2021/08/19 10:23:10;;;;;;;3.80;2.30;;;;;;;27.88;25.21;101260.53;5071180;28;20226;-60
2021/08/19 10:25:36;;;;;;;3.40;2.23;;;;;;;28.07;24.34;101257.69;5071074;28;20179;-60
2021/08/19 10:28:11;;;;;;;5.28;2.20;;;;;;;27.92;24.10;101221.13;5070478;28;20581;-60
2021/08/19 10:30:45;;;;;;;4.17;2.30;;;;;;;28.11;25.06;101250.38;5071336;28;20175;-60
2021/08/19 10:33:36;;;;;;;3.25;2.08;;;;;;;27.97;25.35;101260.16;5071082;28;20171;-60
2021/08/19 10:36:11;;;;;;;3.35;2.03;;;;;;;28.06;24.37;101247.59;5071097;28;20547;-60
2021/08/19 10:38:41;;;;;;;4.00;2.20;;;;;;;28.19;23.63;101244.81;5070388;28;20179;-60
2021/08/19 10:41:29;;;;;;;3.50;1.80;;;;;;;28.41;23.89;101245.28;5053669;28;20268;-60
2021/08/19 10:44:06;;;;;;;5.23;2.10;;;;;;;28.55;23.51;101246.88;5040780;28;20717;-60
2021/08/19 10:46:52;;;;;;;4.17;1.90;;;;;;;28.86;24.52;101240.38;5050859;28;20180;-60
2021/08/19 10:49:32;;;;;;;4.30;2.13;;;;;;;29.09;23.78;101241.59;5069203;28;20210;-61
2021/08/19 10:52:09;;;;;;;4.18;1.80;;;;;;;28.99;23.24;101242.53;5070764;28;20237;-60
2021/08/19 10:54:50;;;;;;;4.40;2.27;;;;;;;28.87;23.45;101233.38;5069943;28;20210;-60
2021/08/19 10:57:25;;;;;;;4.53;2.10;;;;;;;29.11;22.67;101229.59;5069940;28;20184;-60
2021/08/19 11:00:11;;;;;;;3.03;2.17;;;;;;;29.31;22.21;101229.75;5070484;28;20714;-60
2021/08/19 11:02:41;;;;;;;4.10;2.40;;;;;;;28.88;21.29;101177.09;5070440;28;20202;-61
2021/08/19 11:05:08;;;;;;;4.50;1.83;;;;;;;29.33;22.19;101221.38;5035363;28;20191;-60
2021/08/19 11:07:53;;;;;;;3.53;2.22;;;;;;;29.41;22.25;101224.34;5050444;28;20180;-60
2021/08/19 11:10:30;;;;;;;4.20;1.80;;;;;;;29.47;22.61;101222.13;5050343;28;20658;-60
2021/08/19 11:13:09;;;;;;;2.80;1.77;;;;;;;29.40;21.52;101191.41;5050584;28;20616;-60
2021/08/19 11:15:45;;;;;;;4.32;2.00;;;;;;;29.69;21.82;101216.03;5054567;28;20206;-60
2021/08/19 11:18:33;;;;;;;3.95;2.15;;;;;;;29.53;20.72;101217.13;5070330;28;20163;-60
2021/08/19 11:21:00;;;;;;;3.35;2.55;;;;;;;29.51;21.72;101217.66;5060211;28;20611;-60
2021/08/19 11:23:33;;;;;;;3.78;2.47;;;;;;;29.58;20.73;101210.53;5054506;28;20318;-60
2021/08/19 11:26:08;;;;;;;4.85;2.53;;;;;;;29.50;21.18;101212.50;5036576;28;20180;-60